sensor_id;sensor_type;location;lat;lon;timestamp;temperature;humidity
1129;DHT22;553;51.038;7.216;2023-06-04T00:01:12;14.80;71.10
1129;DHT22;553;51.038;7.216;2023-06-04T00:03:42;14.80;70.80
1129;DHT22;553;51.038;7.216;2023-06-04T00:06:10;14.80;71.30
1129;DHT22;553;51.038;7.216;2023-06-04T00:08:36;14.80;70.90
1129;DHT22;553;51.038;7.216;2023-06-04T00:11:03;14.80;71.00
1129;DHT22;553;51.038;7.216;2023-06-04T00:13:30;14.80;71.60
1129;DHT22;553;51.038;7.216;2023-06-04T00:15:57;14.70;72.00
1129;DHT22;553;51.038;7.216;2023-06-04T00:18:23;14.70;72.10
1129;DHT22;553;51.038;7.216;2023-06-04T00:20:50;14.50;72.10
1129;DHT22;553;51.038;7.216;2023-06-04T00:23:17;14.30;72.60
1129;DHT22;553;51.038;7.216;2023-06-04T00:25:44;14.20;72.70
1129;DHT22;553;51.038;7.216;2023-06-04T00:28:10;14.20;72.70
1129;DHT22;553;51.038;7.216;2023-06-04T00:30:37;14.10;72.40
1129;DHT22;553;51.038;7.216;2023-06-04T00:33:04;14.20;72.20
1129;DHT22;553;51.038;7.216;2023-06-04T00:35:32;14.20;72.10
1129;DHT22;553;51.038;7.216;2023-06-04T00:37:59;14.20;71.70
1129;DHT22;553;51.038;7.216;2023-06-04T00:40:25;14.20;71.60
1129;DHT22;553;51.038;7.216;2023-06-04T00:42:52;14.20;71.70
1129;DHT22;553;51.038;7.216;2023-06-04T00:45:19;14.20;71.80
1129;DHT22;553;51.038;7.216;2023-06-04T00:47:46;14.30;71.60
1129;DHT22;553;51.038;7.216;2023-06-04T00:50:14;14.20;71.90
1129;DHT22;553;51.038;7.216;2023-06-04T00:52:41;14.20;72.00
1129;DHT22;553;51.038;7.216;2023-06-04T00:55:08;14.20;72.10
1129;DHT22;553;51.038;7.216;2023-06-04T00:57:37;14.20;72.20
1129;DHT22;553;51.038;7.216;2023-06-04T01:00:04;14.20;72.40
1129;DHT22;553;51.038;7.216;2023-06-04T01:02:33;14.10;72.40
1129;DHT22;553;51.038;7.216;2023-06-04T01:07:50;14.10;72.40
1129;DHT22;553;51.038;7.216;2023-06-04T01:10:19;14.10;72.30
1129;DHT22;553;51.038;7.216;2023-06-04T01:12:45;14.00;72.50
1129;DHT22;553;51.038;7.216;2023-06-04T01:15:13;14.00;72.50
1129;DHT22;553;51.038;7.216;2023-06-04T01:17:49;14.00;72.30
1129;DHT22;553;51.038;7.216;2023-06-04T01:21:06;13.90;72.90
1129;DHT22;553;51.038;7.216;2023-06-04T01:23:47;13.90;72.60
1129;DHT22;553;51.038;7.216;2023-06-04T01:26:16;13.90;72.70
1129;DHT22;553;51.038;7.216;2023-06-04T01:28:43;13.90;72.50
1129;DHT22;553;51.038;7.216;2023-06-04T01:31:12;13.90;72.40
1129;DHT22;553;51.038;7.216;2023-06-04T01:33:40;13.90;72.30
1129;DHT22;553;51.038;7.216;2023-06-04T01:36:07;13.90;72.60
1129;DHT22;553;51.038;7.216;2023-06-04T01:38:37;13.90;72.40
1129;DHT22;553;51.038;7.216;2023-06-04T01:41:03;13.90;72.50
1129;DHT22;553;51.038;7.216;2023-06-04T01:43:30;13.80;72.90
1129;DHT22;553;51.038;7.216;2023-06-04T01:46:02;13.80;72.70
1129;DHT22;553;51.038;7.216;2023-06-04T01:48:31;13.80;72.70
1129;DHT22;553;51.038;7.216;2023-06-04T01:51:01;13.80;72.60
1129;DHT22;553;51.038;7.216;2023-06-04T01:53:29;13.70;73.00
1129;DHT22;553;51.038;7.216;2023-06-04T01:55:56;13.70;73.20
1129;DHT22;553;51.038;7.216;2023-06-04T01:58:23;13.70;73.30
1129;DHT22;553;51.038;7.216;2023-06-04T02:00:53;13.70;73.60
1129;DHT22;553;51.038;7.216;2023-06-04T02:03:22;13.70;73.40
1129;DHT22;553;51.038;7.216;2023-06-04T02:05:49;13.60;74.30
1129;DHT22;553;51.038;7.216;2023-06-04T02:08:16;13.70;73.60
1129;DHT22;553;51.038;7.216;2023-06-04T02:10:49;13.70;73.70
1129;DHT22;553;51.038;7.216;2023-06-04T02:13:15;13.80;73.50
1129;DHT22;553;51.038;7.216;2023-06-04T02:15:42;13.70;73.50
1129;DHT22;553;51.038;7.216;2023-06-04T02:18:17;13.70;73.60
1129;DHT22;553;51.038;7.216;2023-06-04T02:20:44;13.60;75.20
1129;DHT22;553;51.038;7.216;2023-06-04T02:23:12;13.60;74.10
1129;DHT22;553;51.038;7.216;2023-06-04T02:25:39;13.60;75.20
1129;DHT22;553;51.038;7.216;2023-06-04T02:28:07;13.50;76.40
1129;DHT22;553;51.038;7.216;2023-06-04T02:30:34;13.50;76.40
1129;DHT22;553;51.038;7.216;2023-06-04T02:33:01;13.50;75.60
1129;DHT22;553;51.038;7.216;2023-06-04T02:35:29;13.40;75.40
1129;DHT22;553;51.038;7.216;2023-06-04T02:37:56;13.40;75.80
1129;DHT22;553;51.038;7.216;2023-06-04T02:40:25;13.40;75.90
1129;DHT22;553;51.038;7.216;2023-06-04T02:42:53;13.40;75.40
1129;DHT22;553;51.038;7.216;2023-06-04T02:45:20;13.40;75.00
1129;DHT22;553;51.038;7.216;2023-06-04T02:47:47;13.30;76.10
1129;DHT22;553;51.038;7.216;2023-06-04T02:50:15;13.30;76.60
1129;DHT22;553;51.038;7.216;2023-06-04T02:52:42;13.30;76.60
1129;DHT22;553;51.038;7.216;2023-06-04T02:55:10;13.20;76.40
1129;DHT22;553;51.038;7.216;2023-06-04T02:57:42;13.20;76.00
1129;DHT22;553;51.038;7.216;2023-06-04T03:00:11;13.10;76.20
1129;DHT22;553;51.038;7.216;2023-06-04T03:02:46;13.10;76.10
1129;DHT22;553;51.038;7.216;2023-06-04T03:05:15;13.10;75.80
1129;DHT22;553;51.038;7.216;2023-06-04T03:07:45;13.00;75.80
1129;DHT22;553;51.038;7.216;2023-06-04T03:10:13;13.00;76.00
1129;DHT22;553;51.038;7.216;2023-06-04T03:12:41;12.90;76.20
1129;DHT22;553;51.038;7.216;2023-06-04T03:15:08;12.90;76.40
1129;DHT22;553;51.038;7.216;2023-06-04T03:17:35;12.90;77.30
1129;DHT22;553;51.038;7.216;2023-06-04T03:20:02;12.80;77.40
1129;DHT22;553;51.038;7.216;2023-06-04T03:22:31;12.80;77.20
1129;DHT22;553;51.038;7.216;2023-06-04T03:24:58;12.80;77.90
1129;DHT22;553;51.038;7.216;2023-06-04T03:27:24;12.80;77.10
1129;DHT22;553;51.038;7.216;2023-06-04T03:29:52;12.80;78.60
1129;DHT22;553;51.038;7.216;2023-06-04T03:32:18;12.80;77.10
1129;DHT22;553;51.038;7.216;2023-06-04T03:34:47;12.80;76.60
1129;DHT22;553;51.038;7.216;2023-06-04T03:37:13;12.90;76.60
1129;DHT22;553;51.038;7.216;2023-06-04T03:39:40;12.80;76.90
1129;DHT22;553;51.038;7.216;2023-06-04T03:42:09;12.90;77.80
1129;DHT22;553;51.038;7.216;2023-06-04T03:44:37;12.90;79.20
1129;DHT22;553;51.038;7.216;2023-06-04T03:47:04;12.90;78.80
1129;DHT22;553;51.038;7.216;2023-06-04T03:49:32;12.90;78.30
1129;DHT22;553;51.038;7.216;2023-06-04T03:51:59;12.90;76.60
1129;DHT22;553;51.038;7.216;2023-06-04T03:54:27;12.90;77.20
1129;DHT22;553;51.038;7.216;2023-06-04T03:56:53;12.90;76.60
1129;DHT22;553;51.038;7.216;2023-06-04T03:59:20;12.90;76.70
1129;DHT22;553;51.038;7.216;2023-06-04T04:01:47;12.90;76.70
1129;DHT22;553;51.038;7.216;2023-06-04T04:04:14;12.80;77.20
1129;DHT22;553;51.038;7.216;2023-06-04T04:06:41;12.80;78.70
1129;DHT22;553;51.038;7.216;2023-06-04T04:09:09;12.80;78.80
1129;DHT22;553;51.038;7.216;2023-06-04T04:11:36;12.80;77.70
1129;DHT22;553;51.038;7.216;2023-06-04T04:14:03;12.90;77.30
1129;DHT22;553;51.038;7.216;2023-06-04T04:16:31;12.90;77.20
1129;DHT22;553;51.038;7.216;2023-06-04T04:18:58;12.90;77.30
1129;DHT22;553;51.038;7.216;2023-06-04T04:21:25;12.90;77.00
1129;DHT22;553;51.038;7.216;2023-06-04T04:23:52;12.90;76.60
1129;DHT22;553;51.038;7.216;2023-06-04T04:26:19;12.90;77.00
1129;DHT22;553;51.038;7.216;2023-06-04T04:28:50;13.00;76.60
1129;DHT22;553;51.038;7.216;2023-06-04T04:31:19;13.00;77.20
1129;DHT22;553;51.038;7.216;2023-06-04T04:33:48;13.10;77.10
1129;DHT22;553;51.038;7.216;2023-06-04T04:36:18;13.00;78.00
1129;DHT22;553;51.038;7.216;2023-06-04T04:38:48;13.10;77.50
1129;DHT22;553;51.038;7.216;2023-06-04T04:41:23;13.10;78.00
1129;DHT22;553;51.038;7.216;2023-06-04T04:43:52;13.20;77.50
1129;DHT22;553;51.038;7.216;2023-06-04T04:46:27;13.30;77.10
1129;DHT22;553;51.038;7.216;2023-06-04T04:48:53;13.30;77.20
1129;DHT22;553;51.038;7.216;2023-06-04T04:51:21;13.30;77.90
1129;DHT22;553;51.038;7.216;2023-06-04T04:53:49;13.40;77.90
1129;DHT22;553;51.038;7.216;2023-06-04T04:56:16;13.40;77.50
1129;DHT22;553;51.038;7.216;2023-06-04T04:58:47;13.40;77.90
1129;DHT22;553;51.038;7.216;2023-06-04T05:01:14;13.50;77.90
1129;DHT22;553;51.038;7.216;2023-06-04T05:03:42;13.50;77.90
1129;DHT22;553;51.038;7.216;2023-06-04T05:06:12;13.60;77.90
1129;DHT22;553;51.038;7.216;2023-06-04T05:08:39;13.80;77.50
1129;DHT22;553;51.038;7.216;2023-06-04T05:11:06;13.80;77.50
1129;DHT22;553;51.038;7.216;2023-06-04T05:13:33;14.00;77.60
1129;DHT22;553;51.038;7.216;2023-06-04T05:16:03;14.10;77.20
1129;DHT22;553;51.038;7.216;2023-06-04T05:18:37;14.20;76.70
1129;DHT22;553;51.038;7.216;2023-06-04T05:21:09;14.50;76.90
1129;DHT22;553;51.038;7.216;2023-06-04T05:23:42;14.70;76.30
1129;DHT22;553;51.038;7.216;2023-06-04T05:26:11;15.00;75.70
1129;DHT22;553;51.038;7.216;2023-06-04T05:28:38;15.30;75.10
1129;DHT22;553;51.038;7.216;2023-06-04T05:31:10;15.60;74.40
1129;DHT22;553;51.038;7.216;2023-06-04T05:33:39;15.90;74.00
1129;DHT22;553;51.038;7.216;2023-06-04T05:36:11;16.10;73.10
1129;DHT22;553;51.038;7.216;2023-06-04T05:38:45;16.40;72.70
1129;DHT22;553;51.038;7.216;2023-06-04T05:41:14;16.70;72.50
1129;DHT22;553;51.038;7.216;2023-06-04T05:43:41;17.00;71.60
1129;DHT22;553;51.038;7.216;2023-06-04T05:46:12;17.20;70.70
1129;DHT22;553;51.038;7.216;2023-06-04T05:48:40;17.60;70.40
1129;DHT22;553;51.038;7.216;2023-06-04T05:51:07;17.80;70.00
1129;DHT22;553;51.038;7.216;2023-06-04T05:53:36;18.10;70.00
1129;DHT22;553;51.038;7.216;2023-06-04T05:56:03;18.30;69.90
1129;DHT22;553;51.038;7.216;2023-06-04T05:58:32;18.50;69.60
1129;DHT22;553;51.038;7.216;2023-06-04T06:00:58;18.80;68.60
1129;DHT22;553;51.038;7.216;2023-06-04T06:03:25;18.90;67.90
1129;DHT22;553;51.038;7.216;2023-06-04T06:05:54;18.90;69.20
1129;DHT22;553;51.038;7.216;2023-06-04T06:08:21;19.00;68.00
1129;DHT22;553;51.038;7.216;2023-06-04T06:10:48;19.40;67.70
1129;DHT22;553;51.038;7.216;2023-06-04T06:13:15;19.50;67.20
1129;DHT22;553;51.038;7.216;2023-06-04T06:15:42;19.80;66.60
1129;DHT22;553;51.038;7.216;2023-06-04T06:18:09;20.00;65.80
1129;DHT22;553;51.038;7.216;2023-06-04T06:20:36;20.10;66.10
1129;DHT22;553;51.038;7.216;2023-06-04T06:23:06;20.10;66.10
1129;DHT22;553;51.038;7.216;2023-06-04T06:25:36;20.30;65.70
1129;DHT22;553;51.038;7.216;2023-06-04T06:28:08;20.50;66.30
1129;DHT22;553;51.038;7.216;2023-06-04T06:30:36;20.50;65.10
1129;DHT22;553;51.038;7.216;2023-06-04T06:33:02;20.50;65.10
1129;DHT22;553;51.038;7.216;2023-06-04T06:35:29;20.60;65.40
1129;DHT22;553;51.038;7.216;2023-06-04T06:37:56;20.80;64.70
1129;DHT22;553;51.038;7.216;2023-06-04T06:40:23;20.80;64.90
1129;DHT22;553;51.038;7.216;2023-06-04T06:42:49;21.00;64.20
1129;DHT22;553;51.038;7.216;2023-06-04T06:45:18;21.20;64.60
1129;DHT22;553;51.038;7.216;2023-06-04T06:47:45;21.30;63.70
1129;DHT22;553;51.038;7.216;2023-06-04T06:50:12;21.40;64.40
1129;DHT22;553;51.038;7.216;2023-06-04T06:52:39;21.50;63.70
1129;DHT22;553;51.038;7.216;2023-06-04T06:55:06;21.60;62.50
1129;DHT22;553;51.038;7.216;2023-06-04T06:57:33;21.80;63.60
1129;DHT22;553;51.038;7.216;2023-06-04T07:00:00;21.90;62.10
1129;DHT22;553;51.038;7.216;2023-06-04T07:02:27;22.10;62.30
1129;DHT22;553;51.038;7.216;2023-06-04T07:04:55;22.20;61.80
1129;DHT22;553;51.038;7.216;2023-06-04T07:07:22;22.30;62.20
1129;DHT22;553;51.038;7.216;2023-06-04T07:09:49;22.30;62.10
1129;DHT22;553;51.038;7.216;2023-06-04T07:12:16;22.50;61.80
1129;DHT22;553;51.038;7.216;2023-06-04T07:14:43;22.60;61.30
1129;DHT22;553;51.038;7.216;2023-06-04T07:17:10;22.80;60.90
1129;DHT22;553;51.038;7.216;2023-06-04T07:19:36;22.90;60.80
1129;DHT22;553;51.038;7.216;2023-06-04T07:22:03;22.80;59.40
1129;DHT22;553;51.038;7.216;2023-06-04T07:24:30;22.70;59.50
1129;DHT22;553;51.038;7.216;2023-06-04T07:26:57;22.80;60.60
1129;DHT22;553;51.038;7.216;2023-06-04T07:29:24;23.00;58.90
1129;DHT22;553;51.038;7.216;2023-06-04T07:31:51;23.10;59.20
1129;DHT22;553;51.038;7.216;2023-06-04T07:34:17;23.30;59.30
1129;DHT22;553;51.038;7.216;2023-06-04T07:36:44;23.40;58.80
1129;DHT22;553;51.038;7.216;2023-06-04T07:39:11;23.60;59.00
1129;DHT22;553;51.038;7.216;2023-06-04T07:41:38;23.70;59.30
1129;DHT22;553;51.038;7.216;2023-06-04T07:44:04;23.90;58.80
1129;DHT22;553;51.038;7.216;2023-06-04T07:46:31;23.90;57.40
1129;DHT22;553;51.038;7.216;2023-06-04T07:48:58;23.90;58.00
1129;DHT22;553;51.038;7.216;2023-06-04T07:51:25;23.90;58.20
1129;DHT22;553;51.038;7.216;2023-06-04T07:53:52;23.90;56.20
1129;DHT22;553;51.038;7.216;2023-06-04T07:56:19;23.90;55.40
1129;DHT22;553;51.038;7.216;2023-06-04T07:58:46;24.00;56.10
1129;DHT22;553;51.038;7.216;2023-06-04T08:01:13;23.90;55.40
1129;DHT22;553;51.038;7.216;2023-06-04T08:03:40;23.80;55.50
1129;DHT22;553;51.038;7.216;2023-06-04T08:06:09;23.80;54.90
1129;DHT22;553;51.038;7.216;2023-06-04T08:08:36;23.80;55.60
1129;DHT22;553;51.038;7.216;2023-06-04T08:11:03;24.00;54.50
1129;DHT22;553;51.038;7.216;2023-06-04T08:13:30;23.90;54.90
1129;DHT22;553;51.038;7.216;2023-06-04T08:15:57;23.90;53.60
1129;DHT22;553;51.038;7.216;2023-06-04T08:18:23;23.70;54.40
1129;DHT22;553;51.038;7.216;2023-06-04T08:20:50;23.50;56.10
1129;DHT22;553;51.038;7.216;2023-06-04T08:23:17;23.60;55.60
1129;DHT22;553;51.038;7.216;2023-06-04T08:25:44;23.30;54.70
1129;DHT22;553;51.038;7.216;2023-06-04T08:28:13;23.40;56.60
1129;DHT22;553;51.038;7.216;2023-06-04T08:30:41;23.60;54.70
1129;DHT22;553;51.038;7.216;2023-06-04T08:33:08;23.70;56.40
1129;DHT22;553;51.038;7.216;2023-06-04T08:35:37;23.80;55.10
1129;DHT22;553;51.038;7.216;2023-06-04T08:38:04;23.80;55.10
1129;DHT22;553;51.038;7.216;2023-06-04T08:40:31;24.00;54.30
1129;DHT22;553;51.038;7.216;2023-06-04T08:42:58;24.00;53.60
1129;DHT22;553;51.038;7.216;2023-06-04T08:45:26;23.90;53.50
1129;DHT22;553;51.038;7.216;2023-06-04T08:47:54;24.00;54.00
1129;DHT22;553;51.038;7.216;2023-06-04T08:50:23;24.00;53.70
1129;DHT22;553;51.038;7.216;2023-06-04T08:52:54;23.80;53.40
1129;DHT22;553;51.038;7.216;2023-06-04T08:55:22;23.80;53.60
1129;DHT22;553;51.038;7.216;2023-06-04T08:57:52;23.90;53.60
1129;DHT22;553;51.038;7.216;2023-06-04T09:00:20;23.80;54.40
1129;DHT22;553;51.038;7.216;2023-06-04T09:02:49;24.30;54.60
1129;DHT22;553;51.038;7.216;2023-06-04T09:05:21;24.40;52.70
1129;DHT22;553;51.038;7.216;2023-06-04T09:07:52;24.70;51.70
1129;DHT22;553;51.038;7.216;2023-06-04T09:10:22;24.80;51.80
1129;DHT22;553;51.038;7.216;2023-06-04T09:12:51;24.80;51.20
1129;DHT22;553;51.038;7.216;2023-06-04T09:15:18;25.10;51.20
1129;DHT22;553;51.038;7.216;2023-06-04T09:17:45;25.10;49.90
1129;DHT22;553;51.038;7.216;2023-06-04T09:20:19;24.70;50.20
1129;DHT22;553;51.038;7.216;2023-06-04T09:22:46;24.80;50.60
1129;DHT22;553;51.038;7.216;2023-06-04T09:25:21;24.60;49.90
1129;DHT22;553;51.038;7.216;2023-06-04T09:27:48;24.60;50.60
1129;DHT22;553;51.038;7.216;2023-06-04T09:30:15;24.50;50.00
1129;DHT22;553;51.038;7.216;2023-06-04T09:32:42;24.50;49.80
1129;DHT22;553;51.038;7.216;2023-06-04T09:35:17;24.60;50.60
1129;DHT22;553;51.038;7.216;2023-06-04T09:37:54;24.80;50.40
1129;DHT22;553;51.038;7.216;2023-06-04T09:40:23;24.90;50.30
1129;DHT22;553;51.038;7.216;2023-06-04T09:42:51;25.10;49.90
1129;DHT22;553;51.038;7.216;2023-06-04T09:48:02;24.80;49.90
1129;DHT22;553;51.038;7.216;2023-06-04T09:50:33;24.70;50.40
1129;DHT22;553;51.038;7.216;2023-06-04T09:53:16;24.70;50.10
1129;DHT22;553;51.038;7.216;2023-06-04T09:55:43;24.90;49.60
1129;DHT22;553;51.038;7.216;2023-06-04T09:58:10;25.00;49.90
1129;DHT22;553;51.038;7.216;2023-06-04T10:00:38;24.90;50.80
1129;DHT22;553;51.038;7.216;2023-06-04T10:03:08;24.90;48.30
1129;DHT22;553;51.038;7.216;2023-06-04T10:05:38;24.90;47.80
1129;DHT22;553;51.038;7.216;2023-06-04T10:08:05;25.10;49.60
1129;DHT22;553;51.038;7.216;2023-06-04T10:10:36;25.10;48.40
1129;DHT22;553;51.038;7.216;2023-06-04T10:13:18;25.10;47.00
1129;DHT22;553;51.038;7.216;2023-06-04T10:15:46;25.10;47.90
1129;DHT22;553;51.038;7.216;2023-06-04T10:18:16;25.10;48.40
1129;DHT22;553;51.038;7.216;2023-06-04T10:20:43;24.90;48.30
1129;DHT22;553;51.038;7.216;2023-06-04T10:23:10;25.10;48.30
1129;DHT22;553;51.038;7.216;2023-06-04T10:25:37;24.90;48.80
1129;DHT22;553;51.038;7.216;2023-06-04T10:28:04;25.00;48.60
1129;DHT22;553;51.038;7.216;2023-06-04T10:30:31;25.10;49.30
1129;DHT22;553;51.038;7.216;2023-06-04T10:32:58;25.10;48.30
1129;DHT22;553;51.038;7.216;2023-06-04T10:35:33;24.80;46.00
1129;DHT22;553;51.038;7.216;2023-06-04T10:38:09;24.60;47.20
1129;DHT22;553;51.038;7.216;2023-06-04T10:40:37;24.80;47.20
1129;DHT22;553;51.038;7.216;2023-06-04T10:43:08;24.90;49.20
1129;DHT22;553;51.038;7.216;2023-06-04T10:45:36;25.00;48.30
1129;DHT22;553;51.038;7.216;2023-06-04T10:48:11;24.90;48.70
1129;DHT22;553;51.038;7.216;2023-06-04T10:50:51;25.00;48.30
1129;DHT22;553;51.038;7.216;2023-06-04T10:53:19;25.30;48.00
1129;DHT22;553;51.038;7.216;2023-06-04T10:55:47;25.10;48.50
1129;DHT22;553;51.038;7.216;2023-06-04T10:58:14;25.10;49.70
1129;DHT22;553;51.038;7.216;2023-06-04T11:00:46;25.20;50.10
1129;DHT22;553;51.038;7.216;2023-06-04T11:03:13;25.10;49.20
1129;DHT22;553;51.038;7.216;2023-06-04T11:05:43;25.20;50.00
1129;DHT22;553;51.038;7.216;2023-06-04T11:08:11;25.30;49.50
1129;DHT22;553;51.038;7.216;2023-06-04T11:10:41;25.10;49.90
1129;DHT22;553;51.038;7.216;2023-06-04T11:13:08;25.10;50.30
1129;DHT22;553;51.038;7.216;2023-06-04T11:18:08;25.40;49.20
1129;DHT22;553;51.038;7.216;2023-06-04T11:20:39;25.20;49.00
1129;DHT22;553;51.038;7.216;2023-06-04T11:23:06;25.10;48.40
1129;DHT22;553;51.038;7.216;2023-06-04T11:25:33;25.20;48.80
1129;DHT22;553;51.038;7.216;2023-06-04T11:28:00;25.10;49.30
1129;DHT22;553;51.038;7.216;2023-06-04T11:30:28;25.10;48.80
1129;DHT22;553;51.038;7.216;2023-06-04T11:33:03;25.10;49.70
1129;DHT22;553;51.038;7.216;2023-06-04T11:35:30;25.20;50.50
1129;DHT22;553;51.038;7.216;2023-06-04T11:37:58;25.50;50.30
1129;DHT22;553;51.038;7.216;2023-06-04T11:40:25;25.40;48.90
1129;DHT22;553;51.038;7.216;2023-06-04T11:42:54;25.50;49.80
1129;DHT22;553;51.038;7.216;2023-06-04T11:45:22;25.40;49.10
1129;DHT22;553;51.038;7.216;2023-06-04T11:47:51;25.40;48.90
1129;DHT22;553;51.038;7.216;2023-06-04T11:50:20;25.50;49.00
1129;DHT22;553;51.038;7.216;2023-06-04T11:52:48;25.50;48.70
1129;DHT22;553;51.038;7.216;2023-06-04T11:55:15;25.80;49.40
1129;DHT22;553;51.038;7.216;2023-06-04T11:57:48;25.90;49.50
1129;DHT22;553;51.038;7.216;2023-06-04T12:00:16;25.90;49.10
1129;DHT22;553;51.038;7.216;2023-06-04T12:02:54;25.80;49.90
1129;DHT22;553;51.038;7.216;2023-06-04T12:05:27;25.60;51.60
1129;DHT22;553;51.038;7.216;2023-06-04T12:08:05;25.40;51.10
1129;DHT22;553;51.038;7.216;2023-06-04T12:10:40;25.40;51.70
1129;DHT22;553;51.038;7.216;2023-06-04T12:13:07;25.50;51.00
1129;DHT22;553;51.038;7.216;2023-06-04T12:15:34;25.40;49.80
1129;DHT22;553;51.038;7.216;2023-06-04T12:18:01;25.50;50.70
1129;DHT22;553;51.038;7.216;2023-06-04T12:20:35;25.60;51.60
1129;DHT22;553;51.038;7.216;2023-06-04T12:23:03;26.00;51.20
1129;DHT22;553;51.038;7.216;2023-06-04T12:25:31;26.00;51.50
1129;DHT22;553;51.038;7.216;2023-06-04T12:27:58;25.80;51.80
1129;DHT22;553;51.038;7.216;2023-06-04T12:30:35;25.80;52.80
1129;DHT22;553;51.038;7.216;2023-06-04T12:33:03;25.60;52.70
1129;DHT22;553;51.038;7.216;2023-06-04T12:35:29;25.70;52.40
1129;DHT22;553;51.038;7.216;2023-06-04T12:37:56;25.70;51.80
1129;DHT22;553;51.038;7.216;2023-06-04T12:40:23;25.90;52.70
1129;DHT22;553;51.038;7.216;2023-06-04T12:42:50;26.10;51.80
1129;DHT22;553;51.038;7.216;2023-06-04T12:45:17;26.20;51.50
1129;DHT22;553;51.038;7.216;2023-06-04T12:47:44;26.40;51.60
1129;DHT22;553;51.038;7.216;2023-06-04T12:50:11;26.30;51.00
1129;DHT22;553;51.038;7.216;2023-06-04T12:52:38;25.90;51.60
1129;DHT22;553;51.038;7.216;2023-06-04T12:55:05;25.60;52.50
1129;DHT22;553;51.038;7.216;2023-06-04T12:57:32;25.40;54.30
1129;DHT22;553;51.038;7.216;2023-06-04T12:59:58;25.40;54.80
1129;DHT22;553;51.038;7.216;2023-06-04T13:02:25;25.40;54.00
1129;DHT22;553;51.038;7.216;2023-06-04T13:04:52;25.40;53.70
1129;DHT22;553;51.038;7.216;2023-06-04T13:07:22;25.20;55.30
1129;DHT22;553;51.038;7.216;2023-06-04T13:09:53;25.30;54.40
1129;DHT22;553;51.038;7.216;2023-06-04T13:12:19;25.30;54.00
1129;DHT22;553;51.038;7.216;2023-06-04T13:14:46;25.50;53.70
1129;DHT22;553;51.038;7.216;2023-06-04T13:17:13;25.50;54.50
1129;DHT22;553;51.038;7.216;2023-06-04T13:19:46;25.50;54.90
1129;DHT22;553;51.038;7.216;2023-06-04T13:22:13;25.60;53.80
1129;DHT22;553;51.038;7.216;2023-06-04T13:24:40;25.70;53.90
1129;DHT22;553;51.038;7.216;2023-06-04T13:27:07;25.60;52.90
1129;DHT22;553;51.038;7.216;2023-06-04T13:29:33;25.50;54.50
1129;DHT22;553;51.038;7.216;2023-06-04T13:32:01;25.40;54.70
1129;DHT22;553;51.038;7.216;2023-06-04T13:34:28;25.30;55.50
1129;DHT22;553;51.038;7.216;2023-06-04T13:36:54;25.30;55.00
1129;DHT22;553;51.038;7.216;2023-06-04T13:39:22;25.20;55.40
1129;DHT22;553;51.038;7.216;2023-06-04T13:41:48;25.30;54.90
1129;DHT22;553;51.038;7.216;2023-06-04T13:44:15;25.50;54.80
1129;DHT22;553;51.038;7.216;2023-06-04T13:46:42;25.50;55.40
1129;DHT22;553;51.038;7.216;2023-06-04T13:49:09;25.60;55.20
1129;DHT22;553;51.038;7.216;2023-06-04T13:51:36;25.60;55.70
1129;DHT22;553;51.038;7.216;2023-06-04T13:54:02;25.70;54.80
1129;DHT22;553;51.038;7.216;2023-06-04T13:56:29;25.80;54.00
1129;DHT22;553;51.038;7.216;2023-06-04T13:58:56;25.70;54.30
1129;DHT22;553;51.038;7.216;2023-06-04T14:01:22;25.70;54.20
1129;DHT22;553;51.038;7.216;2023-06-04T14:03:49;25.70;54.80
1129;DHT22;553;51.038;7.216;2023-06-04T14:06:17;25.60;55.10
1129;DHT22;553;51.038;7.216;2023-06-04T14:08:43;25.50;54.40
1129;DHT22;553;51.038;7.216;2023-06-04T14:11:10;25.50;53.90
1129;DHT22;553;51.038;7.216;2023-06-04T14:13:37;25.60;53.20
1129;DHT22;553;51.038;7.216;2023-06-04T14:16:05;25.60;54.10
1129;DHT22;553;51.038;7.216;2023-06-04T14:18:32;25.60;54.80
1129;DHT22;553;51.038;7.216;2023-06-04T14:20:59;25.50;54.30
1129;DHT22;553;51.038;7.216;2023-06-04T14:23:26;25.50;54.60
1129;DHT22;553;51.038;7.216;2023-06-04T14:25:52;25.50;54.70
1129;DHT22;553;51.038;7.216;2023-06-04T14:28:19;25.40;55.00
1129;DHT22;553;51.038;7.216;2023-06-04T14:30:47;25.40;55.00
1129;DHT22;553;51.038;7.216;2023-06-04T14:33:14;25.40;54.10
1129;DHT22;553;51.038;7.216;2023-06-04T14:35:41;25.50;55.30
1129;DHT22;553;51.038;7.216;2023-06-04T14:38:14;25.50;55.30
1129;DHT22;553;51.038;7.216;2023-06-04T14:40:41;25.50;55.00
1129;DHT22;553;51.038;7.216;2023-06-04T14:43:12;25.50;54.00
1129;DHT22;553;51.038;7.216;2023-06-04T14:45:39;25.50;55.10
1129;DHT22;553;51.038;7.216;2023-06-04T14:48:07;25.60;55.20
1129;DHT22;553;51.038;7.216;2023-06-04T14:50:41;25.60;54.60
1129;DHT22;553;51.038;7.216;2023-06-04T14:53:08;25.60;55.30
1129;DHT22;553;51.038;7.216;2023-06-04T14:55:35;25.60;56.30
1129;DHT22;553;51.038;7.216;2023-06-04T14:58:02;25.50;54.50
1129;DHT22;553;51.038;7.216;2023-06-04T15:00:31;25.40;54.90
1129;DHT22;553;51.038;7.216;2023-06-04T15:02:58;25.30;55.10
1129;DHT22;553;51.038;7.216;2023-06-04T15:05:26;25.30;55.70
1129;DHT22;553;51.038;7.216;2023-06-04T15:07:53;25.30;55.50
1129;DHT22;553;51.038;7.216;2023-06-04T15:10:19;25.40;54.90
1129;DHT22;553;51.038;7.216;2023-06-04T15:12:46;25.30;54.90
1129;DHT22;553;51.038;7.216;2023-06-04T15:15:13;25.30;55.90
1129;DHT22;553;51.038;7.216;2023-06-04T15:17:39;25.40;54.90
1129;DHT22;553;51.038;7.216;2023-06-04T15:20:06;25.40;55.50
1129;DHT22;553;51.038;7.216;2023-06-04T15:22:33;25.40;55.30
1129;DHT22;553;51.038;7.216;2023-06-04T15:25:00;25.40;55.40
1129;DHT22;553;51.038;7.216;2023-06-04T15:27:27;25.30;55.10
1129;DHT22;553;51.038;7.216;2023-06-04T15:29:54;25.10;54.70
1129;DHT22;553;51.038;7.216;2023-06-04T15:32:20;24.90;55.80
1129;DHT22;553;51.038;7.216;2023-06-04T15:34:47;24.90;55.60
1129;DHT22;553;51.038;7.216;2023-06-04T15:37:14;24.80;54.70
1129;DHT22;553;51.038;7.216;2023-06-04T15:39:41;24.50;54.50
1129;DHT22;553;51.038;7.216;2023-06-04T15:42:08;24.50;54.50
1129;DHT22;553;51.038;7.216;2023-06-04T15:44:34;24.60;55.90
1129;DHT22;553;51.038;7.216;2023-06-04T15:47:01;24.50;55.60
1129;DHT22;553;51.038;7.216;2023-06-04T15:49:28;24.50;55.60
1129;DHT22;553;51.038;7.216;2023-06-04T15:51:55;24.50;55.80
1129;DHT22;553;51.038;7.216;2023-06-04T15:54:22;24.40;55.50
1129;DHT22;553;51.038;7.216;2023-06-04T15:57:09;24.50;55.00
1129;DHT22;553;51.038;7.216;2023-06-04T15:59:36;24.50;55.60
1129;DHT22;553;51.038;7.216;2023-06-04T16:02:02;24.50;55.80
1129;DHT22;553;51.038;7.216;2023-06-04T16:04:29;24.30;54.60
1129;DHT22;553;51.038;7.216;2023-06-04T16:06:56;24.20;55.00
1129;DHT22;553;51.038;7.216;2023-06-04T16:09:23;24.10;55.50
1129;DHT22;553;51.038;7.216;2023-06-04T16:11:49;24.20;55.30
1129;DHT22;553;51.038;7.216;2023-06-04T16:14:16;24.20;55.70
1129;DHT22;553;51.038;7.216;2023-06-04T16:16:43;24.10;55.00
1129;DHT22;553;51.038;7.216;2023-06-04T16:19:13;23.90;54.80
1129;DHT22;553;51.038;7.216;2023-06-04T16:21:40;23.80;55.60
1129;DHT22;553;51.038;7.216;2023-06-04T16:24:07;23.70;55.10
1129;DHT22;553;51.038;7.216;2023-06-04T16:26:34;23.70;56.10
1129;DHT22;553;51.038;7.216;2023-06-04T16:29:01;23.70;55.50
1129;DHT22;553;51.038;7.216;2023-06-04T16:31:28;23.70;56.00